sensor_id;sensor_type;location;lat;lon;timestamp;temperature;humidity
7512;DHT22;9999;48.780;9.146;2023-07-31T00:01:11;15.70;99.90
7512;DHT22;9999;48.780;9.146;2023-07-31T00:03:38;15.70;99.90
7512;DHT22;9999;48.780;9.146;2023-07-31T00:06:05;15.70;99.90
7512;DHT22;9999;48.780;9.146;2023-07-31T00:08:33;15.60;99.90
7512;DHT22;9999;48.780;9.146;2023-07-31T00:11:00;15.40;99.90
7512;DHT22;9999;48.780;9.146;2023-07-31T00:13:27;15.20;99.90
7512;DHT22;9999;48.780;9.146;2023-07-31T00:15:53;15.20;99.90
7512;DHT22;9999;48.780;9.146;2023-07-31T00:18:20;15.20;99.90
7512;DHT22;9999;48.780;9.146;2023-07-31T00:20:47;15.10;99.90
7512;DHT22;9999;48.780;9.146;2023-07-31T00:23:14;15.00;99.90
7512;DHT22;9999;48.780;9.146;2023-07-31T00:25:42;15.10;99.90
7512;DHT22;9999;48.780;9.146;2023-07-31T00:28:09;15.10;99.90
7512;DHT22;9999;48.780;9.146;2023-07-31T00:30:36;15.00;99.90
7512;DHT22;9999;48.780;9.146;2023-07-31T00:33:03;15.10;99.90
7512;DHT22;9999;48.780;9.146;2023-07-31T00:35:30;14.90;99.90
7512;DHT22;9999;48.780;9.146;2023-07-31T00:37:58;14.90;99.90
7512;DHT22;9999;48.780;9.146;2023-07-31T00:40:25;14.80;99.90
7512;DHT22;9999;48.780;9.146;2023-07-31T00:42:53;14.80;99.90
7512;DHT22;9999;48.780;9.146;2023-07-31T00:45:22;14.70;99.90
7512;DHT22;9999;48.780;9.146;2023-07-31T00:47:50;14.70;99.90
7512;DHT22;9999;48.780;9.146;2023-07-31T00:50:17;14.80;99.90
7512;DHT22;9999;48.780;9.146;2023-07-31T00:52:44;14.80;99.90
7512;DHT22;9999;48.780;9.146;2023-07-31T00:55:11;14.80;99.90
7512;DHT22;9999;48.780;9.146;2023-07-31T00:57:38;14.80;99.90
7512;DHT22;9999;48.780;9.146;2023-07-31T01:00:10;14.80;99.90
7512;DHT22;9999;48.780;9.146;2023-07-31T01:02:37;14.90;99.90
7512;DHT22;9999;48.780;9.146;2023-07-31T01:05:05;14.90;99.90
7512;DHT22;9999;48.780;9.146;2023-07-31T01:07:38;15.00;99.90
7512;DHT22;9999;48.780;9.146;2023-07-31T01:10:15;15.10;99.90
7512;DHT22;9999;48.780;9.146;2023-07-31T01:12:45;15.20;99.90
7512;DHT22;9999;48.780;9.146;2023-07-31T01:15:13;15.00;99.90
7512;DHT22;9999;48.780;9.146;2023-07-31T01:17:41;15.00;99.90
7512;DHT22;9999;48.780;9.146;2023-07-31T01:20:12;15.00;99.90
7512;DHT22;9999;48.780;9.146;2023-07-31T01:23:07;14.90;99.90
7512;DHT22;9999;48.780;9.146;2023-07-31T01:25:56;14.80;99.90
7512;DHT22;9999;48.780;9.146;2023-07-31T01:28:30;14.70;99.90
7512;DHT22;9999;48.780;9.146;2023-07-31T01:31:00;14.70;99.90
7512;DHT22;9999;48.780;9.146;2023-07-31T01:33:28;14.80;99.90
7512;DHT22;9999;48.780;9.146;2023-07-31T01:35:56;14.80;99.90
7512;DHT22;9999;48.780;9.146;2023-07-31T01:38:23;14.80;99.90
7512;DHT22;9999;48.780;9.146;2023-07-31T01:40:52;14.70;99.90
7512;DHT22;9999;48.780;9.146;2023-07-31T01:43:19;14.60;99.90
7512;DHT22;9999;48.780;9.146;2023-07-31T01:45:46;14.60;99.90
7512;DHT22;9999;48.780;9.146;2023-07-31T01:48:13;14.60;99.90
7512;DHT22;9999;48.780;9.146;2023-07-31T01:50:40;14.60;99.90
7512;DHT22;9999;48.780;9.146;2023-07-31T01:53:07;14.60;99.90
7512;DHT22;9999;48.780;9.146;2023-07-31T01:55:34;14.60;99.90
7512;DHT22;9999;48.780;9.146;2023-07-31T01:58:02;14.60;99.90
7512;DHT22;9999;48.780;9.146;2023-07-31T02:00:29;14.60;99.90
7512;DHT22;9999;48.780;9.146;2023-07-31T02:02:56;14.60;99.90
7512;DHT22;9999;48.780;9.146;2023-07-31T02:05:23;14.70;99.90
7512;DHT22;9999;48.780;9.146;2023-07-31T02:07:50;14.60;99.90
7512;DHT22;9999;48.780;9.146;2023-07-31T02:10:16;14.60;99.90
7512;DHT22;9999;48.780;9.146;2023-07-31T02:12:43;14.70;99.90
7512;DHT22;9999;48.780;9.146;2023-07-31T02:15:11;14.70;99.90
7512;DHT22;9999;48.780;9.146;2023-07-31T02:17:38;14.80;99.90
7512;DHT22;9999;48.780;9.146;2023-07-31T02:20:07;14.70;99.90
7512;DHT22;9999;48.780;9.146;2023-07-31T02:22:34;14.70;99.90
7512;DHT22;9999;48.780;9.146;2023-07-31T02:25:02;14.70;99.90
7512;DHT22;9999;48.780;9.146;2023-07-31T02:27:29;14.60;99.90
7512;DHT22;9999;48.780;9.146;2023-07-31T02:29:55;14.60;99.90
7512;DHT22;9999;48.780;9.146;2023-07-31T02:32:26;14.60;99.90
7512;DHT22;9999;48.780;9.146;2023-07-31T02:34:52;14.60;99.90
7512;DHT22;9999;48.780;9.146;2023-07-31T02:37:19;14.60;99.90
7512;DHT22;9999;48.780;9.146;2023-07-31T02:39:46;14.60;99.90
7512;DHT22;9999;48.780;9.146;2023-07-31T02:42:14;14.60;99.90
7512;DHT22;9999;48.780;9.146;2023-07-31T02:44:40;14.60;99.90
7512;DHT22;9999;48.780;9.146;2023-07-31T02:47:07;14.70;99.90
7512;DHT22;9999;48.780;9.146;2023-07-31T02:49:35;14.70;99.90
7512;DHT22;9999;48.780;9.146;2023-07-31T02:52:03;14.60;99.90
7512;DHT22;9999;48.780;9.146;2023-07-31T02:54:30;14.50;99.90
7512;DHT22;9999;48.780;9.146;2023-07-31T02:56:56;14.40;99.90
7512;DHT22;9999;48.780;9.146;2023-07-31T02:59:23;14.40;99.90
7512;DHT22;9999;48.780;9.146;2023-07-31T03:01:51;14.40;99.90
7512;DHT22;9999;48.780;9.146;2023-07-31T03:04:18;14.40;99.90
7512;DHT22;9999;48.780;9.146;2023-07-31T03:06:46;14.40;99.90
7512;DHT22;9999;48.780;9.146;2023-07-31T03:09:12;14.30;99.90
7512;DHT22;9999;48.780;9.146;2023-07-31T03:11:39;14.30;99.90
7512;DHT22;9999;48.780;9.146;2023-07-31T03:14:06;14.40;99.90
7512;DHT22;9999;48.780;9.146;2023-07-31T03:16:33;14.40;99.90
7512;DHT22;9999;48.780;9.146;2023-07-31T03:19:00;14.40;99.90
7512;DHT22;9999;48.780;9.146;2023-07-31T03:21:26;14.50;99.90
7512;DHT22;9999;48.780;9.146;2023-07-31T03:23:54;14.40;99.90
7512;DHT22;9999;48.780;9.146;2023-07-31T03:26:21;14.40;99.90
7512;DHT22;9999;48.780;9.146;2023-07-31T03:28:48;14.40;99.90
7512;DHT22;9999;48.780;9.146;2023-07-31T03:31:15;14.50;99.90
7512;DHT22;9999;48.780;9.146;2023-07-31T03:33:42;14.40;99.90
7512;DHT22;9999;48.780;9.146;2023-07-31T03:36:09;14.40;99.90
7512;DHT22;9999;48.780;9.146;2023-07-31T03:38:36;14.40;99.90
7512;DHT22;9999;48.780;9.146;2023-07-31T03:41:04;14.50;99.90
7512;DHT22;9999;48.780;9.146;2023-07-31T03:43:31;14.60;99.90
7512;DHT22;9999;48.780;9.146;2023-07-31T03:45:59;14.60;99.90
7512;DHT22;9999;48.780;9.146;2023-07-31T03:48:26;14.60;99.90
7512;DHT22;9999;48.780;9.146;2023-07-31T03:50:54;14.60;99.90
7512;DHT22;9999;48.780;9.146;2023-07-31T03:53:21;14.50;99.90
7512;DHT22;9999;48.780;9.146;2023-07-31T03:55:48;14.50;99.90
7512;DHT22;9999;48.780;9.146;2023-07-31T03:58:16;14.50;99.90
7512;DHT22;9999;48.780;9.146;2023-07-31T04:00:43;14.50;99.90
7512;DHT22;9999;48.780;9.146;2023-07-31T04:03:09;14.60;99.90
7512;DHT22;9999;48.780;9.146;2023-07-31T04:05:38;14.60;99.90
7512;DHT22;9999;48.780;9.146;2023-07-31T04:08:06;14.70;99.90
7512;DHT22;9999;48.780;9.146;2023-07-31T04:10:32;14.70;99.90
7512;DHT22;9999;48.780;9.146;2023-07-31T04:12:59;14.70;99.90
7512;DHT22;9999;48.780;9.146;2023-07-31T04:15:27;14.70;99.90
7512;DHT22;9999;48.780;9.146;2023-07-31T04:17:54;14.80;99.90
7512;DHT22;9999;48.780;9.146;2023-07-31T04:20:21;14.80;99.90
7512;DHT22;9999;48.780;9.146;2023-07-31T04:22:48;14.80;99.90
7512;DHT22;9999;48.780;9.146;2023-07-31T04:25:15;14.90;99.90
7512;DHT22;9999;48.780;9.146;2023-07-31T04:27:41;14.90;99.90
7512;DHT22;9999;48.780;9.146;2023-07-31T04:30:09;14.90;99.90
7512;DHT22;9999;48.780;9.146;2023-07-31T04:32:37;14.90;99.90
7512;DHT22;9999;48.780;9.146;2023-07-31T04:35:04;15.00;99.90
7512;DHT22;9999;48.780;9.146;2023-07-31T04:37:31;15.00;99.90
7512;DHT22;9999;48.780;9.146;2023-07-31T04:39:58;15.00;99.90
7512;DHT22;9999;48.780;9.146;2023-07-31T04:42:25;15.10;99.90
7512;DHT22;9999;48.780;9.146;2023-07-31T04:44:52;15.10;99.90
7512;DHT22;9999;48.780;9.146;2023-07-31T04:47:19;15.10;99.90
7512;DHT22;9999;48.780;9.146;2023-07-31T04:49:47;15.20;99.90
7512;DHT22;9999;48.780;9.146;2023-07-31T04:52:14;15.20;99.90
7512;DHT22;9999;48.780;9.146;2023-07-31T04:54:41;15.30;99.90
7512;DHT22;9999;48.780;9.146;2023-07-31T04:57:07;15.30;99.90
7512;DHT22;9999;48.780;9.146;2023-07-31T04:59:34;15.30;99.90
7512;DHT22;9999;48.780;9.146;2023-07-31T05:02:01;15.30;99.90
7512;DHT22;9999;48.780;9.146;2023-07-31T05:04:28;15.30;99.90
7512;DHT22;9999;48.780;9.146;2023-07-31T05:06:56;15.30;99.90
7512;DHT22;9999;48.780;9.146;2023-07-31T05:09:23;15.30;99.90
7512;DHT22;9999;48.780;9.146;2023-07-31T05:11:49;15.30;99.90
7512;DHT22;9999;48.780;9.146;2023-07-31T05:14:16;15.30;99.90
7512;DHT22;9999;48.780;9.146;2023-07-31T05:16:43;15.30;99.90
7512;DHT22;9999;48.780;9.146;2023-07-31T05:19:10;15.30;99.90
7512;DHT22;9999;48.780;9.146;2023-07-31T05:21:36;15.30;99.90
7512;DHT22;9999;48.780;9.146;2023-07-31T05:24:05;15.30;99.90
7512;DHT22;9999;48.780;9.146;2023-07-31T05:26:31;15.30;99.90
7512;DHT22;9999;48.780;9.146;2023-07-31T05:28:58;15.40;99.90
7512;DHT22;9999;48.780;9.146;2023-07-31T05:31:25;15.40;99.90
7512;DHT22;9999;48.780;9.146;2023-07-31T05:33:52;15.40;99.90
7512;DHT22;9999;48.780;9.146;2023-07-31T05:36:18;15.40;99.90
7512;DHT22;9999;48.780;9.146;2023-07-31T05:38:45;15.40;99.90
7512;DHT22;9999;48.780;9.146;2023-07-31T05:41:13;15.50;99.90
7512;DHT22;9999;48.780;9.146;2023-07-31T05:43:40;15.50;99.90
7512;DHT22;9999;48.780;9.146;2023-07-31T05:46:08;15.50;99.90
7512;DHT22;9999;48.780;9.146;2023-07-31T05:48:35;15.60;99.90
7512;DHT22;9999;48.780;9.146;2023-07-31T05:51:02;15.70;99.90
7512;DHT22;9999;48.780;9.146;2023-07-31T05:53:29;15.70;99.90
7512;DHT22;9999;48.780;9.146;2023-07-31T05:55:55;15.90;99.90
7512;DHT22;9999;48.780;9.146;2023-07-31T05:58:24;16.00;99.90
7512;DHT22;9999;48.780;9.146;2023-07-31T06:00:50;16.00;99.90
7512;DHT22;9999;48.780;9.146;2023-07-31T06:03:17;16.20;99.90
7512;DHT22;9999;48.780;9.146;2023-07-31T06:05:44;16.30;99.90
7512;DHT22;9999;48.780;9.146;2023-07-31T06:08:11;16.30;99.90
7512;DHT22;9999;48.780;9.146;2023-07-31T06:10:37;16.40;99.90
7512;DHT22;9999;48.780;9.146;2023-07-31T06:13:04;16.50;99.90
7512;DHT22;9999;48.780;9.146;2023-07-31T06:15:33;16.60;99.90
7512;DHT22;9999;48.780;9.146;2023-07-31T06:18:00;16.60;99.90
7512;DHT22;9999;48.780;9.146;2023-07-31T06:20:27;16.70;99.90
7512;DHT22;9999;48.780;9.146;2023-07-31T06:22:54;16.90;99.90
7512;DHT22;9999;48.780;9.146;2023-07-31T06:25:21;17.00;99.90
7512;DHT22;9999;48.780;9.146;2023-07-31T06:27:48;17.10;99.90
7512;DHT22;9999;48.780;9.146;2023-07-31T06:30:15;17.20;99.90
7512;DHT22;9999;48.780;9.146;2023-07-31T06:32:43;17.20;99.90
7512;DHT22;9999;48.780;9.146;2023-07-31T06:35:09;17.40;99.90
7512;DHT22;9999;48.780;9.146;2023-07-31T06:37:36;17.40;99.90
7512;DHT22;9999;48.780;9.146;2023-07-31T06:40:07;17.50;99.90
7512;DHT22;9999;48.780;9.146;2023-07-31T06:42:34;17.40;99.90
7512;DHT22;9999;48.780;9.146;2023-07-31T06:45:01;17.30;99.90
7512;DHT22;9999;48.780;9.146;2023-07-31T06:47:28;17.40;99.90
7512;DHT22;9999;48.780;9.146;2023-07-31T06:49:57;17.60;99.90
7512;DHT22;9999;48.780;9.146;2023-07-31T06:52:23;17.80;99.90
7512;DHT22;9999;48.780;9.146;2023-07-31T06:55:01;17.90;99.90
7512;DHT22;9999;48.780;9.146;2023-07-31T06:57:29;18.00;99.90
7512;DHT22;9999;48.780;9.146;2023-07-31T06:59:56;18.00;99.90
7512;DHT22;9999;48.780;9.146;2023-07-31T07:02:22;18.20;99.90
7512;DHT22;9999;48.780;9.146;2023-07-31T07:04:49;18.10;99.90
7512;DHT22;9999;48.780;9.146;2023-07-31T07:07:18;18.10;99.90
7512;DHT22;9999;48.780;9.146;2023-07-31T07:09:45;18.00;99.90
7512;DHT22;9999;48.780;9.146;2023-07-31T07:12:11;18.10;99.90
7512;DHT22;9999;48.780;9.146;2023-07-31T07:14:38;18.10;99.90
7512;DHT22;9999;48.780;9.146;2023-07-31T07:17:05;18.40;99.90
7512;DHT22;9999;48.780;9.146;2023-07-31T07:19:32;18.70;99.90
7512;DHT22;9999;48.780;9.146;2023-07-31T07:21:59;18.90;99.90
7512;DHT22;9999;48.780;9.146;2023-07-31T07:24:28;19.00;99.90
7512;DHT22;9999;48.780;9.146;2023-07-31T07:26:55;18.90;99.90
7512;DHT22;9999;48.780;9.146;2023-07-31T07:29:22;18.90;99.90
7512;DHT22;9999;48.780;9.146;2023-07-31T07:31:49;19.00;99.90
7512;DHT22;9999;48.780;9.146;2023-07-31T07:34:15;18.80;99.90
7512;DHT22;9999;48.780;9.146;2023-07-31T07:36:42;18.80;99.90
7512;DHT22;9999;48.780;9.146;2023-07-31T07:39:10;18.60;99.90
7512;DHT22;9999;48.780;9.146;2023-07-31T07:41:38;18.50;99.90
7512;DHT22;9999;48.780;9.146;2023-07-31T07:44:05;18.40;99.90
7512;DHT22;9999;48.780;9.146;2023-07-31T07:46:32;18.70;99.90
7512;DHT22;9999;48.780;9.146;2023-07-31T07:48:59;18.70;99.90
7512;DHT22;9999;48.780;9.146;2023-07-31T07:51:25;18.80;99.90
7512;DHT22;9999;48.780;9.146;2023-07-31T07:53:52;18.90;99.90
7512;DHT22;9999;48.780;9.146;2023-07-31T07:56:19;19.10;99.90
7512;DHT22;9999;48.780;9.146;2023-07-31T07:58:50;19.40;99.90
7512;DHT22;9999;48.780;9.146;2023-07-31T08:01:16;19.60;99.90
7512;DHT22;9999;48.780;9.146;2023-07-31T08:03:43;20.00;99.90
7512;DHT22;9999;48.780;9.146;2023-07-31T08:06:10;19.80;99.90
7512;DHT22;9999;48.780;9.146;2023-07-31T08:08:37;19.90;99.90
7512;DHT22;9999;48.780;9.146;2023-07-31T08:11:04;20.10;99.90
7512;DHT22;9999;48.780;9.146;2023-07-31T08:13:31;20.20;99.90
7512;DHT22;9999;48.780;9.146;2023-07-31T08:15:59;20.20;99.90
7512;DHT22;9999;48.780;9.146;2023-07-31T08:18:26;20.20;99.90
7512;DHT22;9999;48.780;9.146;2023-07-31T08:20:53;20.30;99.90
7512;DHT22;9999;48.780;9.146;2023-07-31T08:23:20;20.30;99.90
7512;DHT22;9999;48.780;9.146;2023-07-31T08:25:47;20.40;99.90
7512;DHT22;9999;48.780;9.146;2023-07-31T08:28:15;20.60;99.90
7512;DHT22;9999;48.780;9.146;2023-07-31T08:30:42;20.80;99.90
7512;DHT22;9999;48.780;9.146;2023-07-31T08:33:10;21.10;99.90
7512;DHT22;9999;48.780;9.146;2023-07-31T08:35:37;20.80;99.90
7512;DHT22;9999;48.780;9.146;2023-07-31T08:38:03;20.30;99.90
7512;DHT22;9999;48.780;9.146;2023-07-31T08:40:30;20.30;99.90
7512;DHT22;9999;48.780;9.146;2023-07-31T08:42:57;20.40;99.90
7512;DHT22;9999;48.780;9.146;2023-07-31T08:45:28;20.80;99.90
7512;DHT22;9999;48.780;9.146;2023-07-31T08:47:56;21.00;99.90
7512;DHT22;9999;48.780;9.146;2023-07-31T08:50:24;21.10;99.90
7512;DHT22;9999;48.780;9.146;2023-07-31T08:52:51;21.20;99.90
7512;DHT22;9999;48.780;9.146;2023-07-31T08:55:19;20.90;99.90
7512;DHT22;9999;48.780;9.146;2023-07-31T08:57:50;20.70;99.90
7512;DHT22;9999;48.780;9.146;2023-07-31T09:00:18;20.90;99.90
7512;DHT22;9999;48.780;9.146;2023-07-31T09:02:56;20.90;99.90
7512;DHT22;9999;48.780;9.146;2023-07-31T09:05:26;20.70;99.90
7512;DHT22;9999;48.780;9.146;2023-07-31T09:07:53;20.80;99.90
7512;DHT22;9999;48.780;9.146;2023-07-31T09:10:21;20.70;99.90
7512;DHT22;9999;48.780;9.146;2023-07-31T09:12:48;20.60;99.90
7512;DHT22;9999;48.780;9.146;2023-07-31T09:15:15;20.70;99.90
7512;DHT22;9999;48.780;9.146;2023-07-31T09:17:43;21.00;99.90
7512;DHT22;9999;48.780;9.146;2023-07-31T09:20:13;20.90;99.90
7512;DHT22;9999;48.780;9.146;2023-07-31T09:22:42;20.90;99.90
7512;DHT22;9999;48.780;9.146;2023-07-31T09:25:17;20.70;99.90
7512;DHT22;9999;48.780;9.146;2023-07-31T09:27:46;20.30;99.90
7512;DHT22;9999;48.780;9.146;2023-07-31T09:30:13;20.30;99.90
7512;DHT22;9999;48.780;9.146;2023-07-31T09:32:40;20.40;99.90
7512;DHT22;9999;48.780;9.146;2023-07-31T09:35:14;20.10;99.90
7512;DHT22;9999;48.780;9.146;2023-07-31T09:37:48;20.00;99.90
7512;DHT22;9999;48.780;9.146;2023-07-31T09:40:25;19.90;99.90
7512;DHT22;9999;48.780;9.146;2023-07-31T09:42:52;19.80;99.90
7512;DHT22;9999;48.780;9.146;2023-07-31T09:45:19;19.90;99.90
7512;DHT22;9999;48.780;9.146;2023-07-31T09:47:46;19.80;99.90
7512;DHT22;9999;48.780;9.146;2023-07-31T09:50:14;19.90;99.90
7512;DHT22;9999;48.780;9.146;2023-07-31T09:52:41;20.20;99.90
7512;DHT22;9999;48.780;9.146;2023-07-31T09:55:10;20.50;99.90
7512;DHT22;9999;48.780;9.146;2023-07-31T09:57:38;20.90;99.90
7512;DHT22;9999;48.780;9.146;2023-07-31T10:00:07;21.10;99.90
7512;DHT22;9999;48.780;9.146;2023-07-31T10:02:38;21.10;99.90
7512;DHT22;9999;48.780;9.146;2023-07-31T10:05:06;20.90;99.90
7512;DHT22;9999;48.780;9.146;2023-07-31T10:07:36;20.60;99.90
7512;DHT22;9999;48.780;9.146;2023-07-31T10:10:04;20.70;99.90
7512;DHT22;9999;48.780;9.146;2023-07-31T10:12:33;20.80;99.90
7512;DHT22;9999;48.780;9.146;2023-07-31T10:15:01;20.90;99.90
7512;DHT22;9999;48.780;9.146;2023-07-31T10:17:29;20.80;99.90
7512;DHT22;9999;48.780;9.146;2023-07-31T10:19:57;20.70;99.90
7512;DHT22;9999;48.780;9.146;2023-07-31T10:22:25;20.60;99.90
7512;DHT22;9999;48.780;9.146;2023-07-31T10:24:52;20.60;99.90
7512;DHT22;9999;48.780;9.146;2023-07-31T10:27:21;20.60;99.90
7512;DHT22;9999;48.780;9.146;2023-07-31T10:29:49;20.60;99.90
7512;DHT22;9999;48.780;9.146;2023-07-31T10:32:18;20.60;99.90
7512;DHT22;9999;48.780;9.146;2023-07-31T10:34:46;20.80;99.90
7512;DHT22;9999;48.780;9.146;2023-07-31T10:37:21;21.00;99.90
7512;DHT22;9999;48.780;9.146;2023-07-31T10:39:56;20.90;99.90
7512;DHT22;9999;48.780;9.146;2023-07-31T10:42:28;21.00;99.90
7512;DHT22;9999;48.780;9.146;2023-07-31T10:44:58;21.60;99.90
7512;DHT22;9999;48.780;9.146;2023-07-31T10:47:26;21.90;99.90
7512;DHT22;9999;48.780;9.146;2023-07-31T10:49:52;21.60;99.90
7512;DHT22;9999;48.780;9.146;2023-07-31T10:52:20;21.60;99.90
7512;DHT22;9999;48.780;9.146;2023-07-31T10:54:49;21.40;99.90
7512;DHT22;9999;48.780;9.146;2023-07-31T10:57:20;21.30;99.90
7512;DHT22;9999;48.780;9.146;2023-07-31T10:59:47;21.30;99.90
7512;DHT22;9999;48.780;9.146;2023-07-31T11:02:25;21.40;99.90
7512;DHT22;9999;48.780;9.146;2023-07-31T11:05:08;21.80;99.90
7512;DHT22;9999;48.780;9.146;2023-07-31T11:07:47;21.90;99.90
7512;DHT22;9999;48.780;9.146;2023-07-31T11:10:16;21.70;99.90
7512;DHT22;9999;48.780;9.146;2023-07-31T11:12:45;21.80;99.90
7512;DHT22;9999;48.780;9.146;2023-07-31T11:15:11;21.80;99.90
7512;DHT22;9999;48.780;9.146;2023-07-31T11:17:40;21.70;99.90
7512;DHT22;9999;48.780;9.146;2023-07-31T11:20:08;22.10;99.90
7512;DHT22;9999;48.780;9.146;2023-07-31T11:22:35;22.60;99.90
7512;DHT22;9999;48.780;9.146;2023-07-31T11:25:02;22.60;99.90
7512;DHT22;9999;48.780;9.146;2023-07-31T11:27:30;22.80;99.90
7512;DHT22;9999;48.780;9.146;2023-07-31T11:30:00;23.10;99.90
7512;DHT22;9999;48.780;9.146;2023-07-31T11:32:27;23.10;99.90
7512;DHT22;9999;48.780;9.146;2023-07-31T11:34:55;22.80;99.90
7512;DHT22;9999;48.780;9.146;2023-07-31T11:37:22;22.60;99.90
7512;DHT22;9999;48.780;9.146;2023-07-31T11:39:59;22.40;99.90
7512;DHT22;9999;48.780;9.146;2023-07-31T11:42:26;22.20;99.90
7512;DHT22;9999;48.780;9.146;2023-07-31T11:44:53;22.10;99.90
7512;DHT22;9999;48.780;9.146;2023-07-31T11:47:20;22.10;99.90
7512;DHT22;9999;48.780;9.146;2023-07-31T11:49:47;22.10;99.90
7512;DHT22;9999;48.780;9.146;2023-07-31T11:52:18;21.90;99.90
7512;DHT22;9999;48.780;9.146;2023-07-31T11:54:46;21.70;99.90
7512;DHT22;9999;48.780;9.146;2023-07-31T11:57:13;21.80;99.90
7512;DHT22;9999;48.780;9.146;2023-07-31T11:59:41;21.80;99.90
7512;DHT22;9999;48.780;9.146;2023-07-31T12:02:08;21.90;99.90
7512;DHT22;9999;48.780;9.146;2023-07-31T12:04:35;21.80;99.90
7512;DHT22;9999;48.780;9.146;2023-07-31T12:07:02;21.80;99.90
7512;DHT22;9999;48.780;9.146;2023-07-31T12:09:30;21.80;99.90
7512;DHT22;9999;48.780;9.146;2023-07-31T12:11:57;21.80;99.90
7512;DHT22;9999;48.780;9.146;2023-07-31T12:14:26;21.80;99.90
7512;DHT22;9999;48.780;9.146;2023-07-31T12:16:55;21.70;99.90
7512;DHT22;9999;48.780;9.146;2023-07-31T12:19:21;21.80;99.90
7512;DHT22;9999;48.780;9.146;2023-07-31T12:21:49;21.80;99.90
7512;DHT22;9999;48.780;9.146;2023-07-31T12:24:18;21.80;99.90
7512;DHT22;9999;48.780;9.146;2023-07-31T12:26:48;21.50;99.90
7512;DHT22;9999;48.780;9.146;2023-07-31T12:29:15;21.30;99.90
7512;DHT22;9999;48.780;9.146;2023-07-31T12:31:42;21.30;99.90
7512;DHT22;9999;48.780;9.146;2023-07-31T12:34:15;21.20;99.90
7512;DHT22;9999;48.780;9.146;2023-07-31T12:36:43;21.20;99.90
7512;DHT22;9999;48.780;9.146;2023-07-31T12:39:10;21.20;99.90
7512;DHT22;9999;48.780;9.146;2023-07-31T12:41:37;21.30;99.90
7512;DHT22;9999;48.780;9.146;2023-07-31T12:44:05;21.00;99.90
7512;DHT22;9999;48.780;9.146;2023-07-31T12:46:32;20.90;99.90
7512;DHT22;9999;48.780;9.146;2023-07-31T12:48:59;20.90;99.90
7512;DHT22;9999;48.780;9.146;2023-07-31T12:51:26;20.90;99.90
7512;DHT22;9999;48.780;9.146;2023-07-31T12:53:53;20.90;99.90
7512;DHT22;9999;48.780;9.146;2023-07-31T12:56:20;20.90;99.90
7512;DHT22;9999;48.780;9.146;2023-07-31T12:58:47;21.00;99.90
7512;DHT22;9999;48.780;9.146;2023-07-31T13:01:15;21.10;99.90
7512;DHT22;9999;48.780;9.146;2023-07-31T13:03:42;21.20;99.90
7512;DHT22;9999;48.780;9.146;2023-07-31T13:06:08;21.20;99.90
7512;DHT22;9999;48.780;9.146;2023-07-31T13:08:36;21.20;99.90
7512;DHT22;9999;48.780;9.146;2023-07-31T13:11:03;21.20;99.90
7512;DHT22;9999;48.780;9.146;2023-07-31T13:13:30;21.20;99.90
7512;DHT22;9999;48.780;9.146;2023-07-31T13:15:56;21.20;99.90
7512;DHT22;9999;48.780;9.146;2023-07-31T13:18:25;21.10;99.90
7512;DHT22;9999;48.780;9.146;2023-07-31T13:20:51;21.20;99.90
7512;DHT22;9999;48.780;9.146;2023-07-31T13:23:18;21.30;99.90
7512;DHT22;9999;48.780;9.146;2023-07-31T13:25:45;21.40;99.90
7512;DHT22;9999;48.780;9.146;2023-07-31T13:28:12;21.70;99.90
7512;DHT22;9999;48.780;9.146;2023-07-31T13:30:38;21.80;99.90
7512;DHT22;9999;48.780;9.146;2023-07-31T13:33:05;22.00;99.90
7512;DHT22;9999;48.780;9.146;2023-07-31T13:35:33;22.10;99.90
7512;DHT22;9999;48.780;9.146;2023-07-31T13:38:00;22.20;99.90
7512;DHT22;9999;48.780;9.146;2023-07-31T13:40:27;22.30;99.90
7512;DHT22;9999;48.780;9.146;2023-07-31T13:42:53;22.40;99.90
7512;DHT22;9999;48.780;9.146;2023-07-31T13:45:21;22.50;99.90
7512;DHT22;9999;48.780;9.146;2023-07-31T13:47:50;22.50;99.90
7512;DHT22;9999;48.780;9.146;2023-07-31T13:50:16;22.30;99.90
7512;DHT22;9999;48.780;9.146;2023-07-31T13:52:47;22.30;99.90
7512;DHT22;9999;48.780;9.146;2023-07-31T13:55:14;22.30;99.90
7512;DHT22;9999;48.780;9.146;2023-07-31T13:57:41;22.40;99.90
7512;DHT22;9999;48.780;9.146;2023-07-31T14:00:09;22.50;99.90
7512;DHT22;9999;48.780;9.146;2023-07-31T14:02:36;22.30;99.90
7512;DHT22;9999;48.780;9.146;2023-07-31T14:05:04;22.10;99.90
7512;DHT22;9999;48.780;9.146;2023-07-31T14:07:31;22.10;99.90
7512;DHT22;9999;48.780;9.146;2023-07-31T14:10:00;22.20;99.90
7512;DHT22;9999;48.780;9.146;2023-07-31T14:12:27;22.20;99.90
7512;DHT22;9999;48.780;9.146;2023-07-31T14:14:53;22.20;99.90
7512;DHT22;9999;48.780;9.146;2023-07-31T14:17:20;22.30;99.90
7512;DHT22;9999;48.780;9.146;2023-07-31T14:19:47;22.20;99.90
7512;DHT22;9999;48.780;9.146;2023-07-31T14:22:13;22.10;99.90
7512;DHT22;9999;48.780;9.146;2023-07-31T14:24:40;22.30;99.90
7512;DHT22;9999;48.780;9.146;2023-07-31T14:27:09;22.40;99.90
7512;DHT22;9999;48.780;9.146;2023-07-31T14:29:35;22.50;99.90
7512;DHT22;9999;48.780;9.146;2023-07-31T14:32:02;22.60;99.90
7512;DHT22;9999;48.780;9.146;2023-07-31T14:34:30;22.60;99.90
7512;DHT22;9999;48.780;9.146;2023-07-31T14:36:56;22.60;99.90
7512;DHT22;9999;48.780;9.146;2023-07-31T14:39:24;22.60;99.90
7512;DHT22;9999;48.780;9.146;2023-07-31T14:41:50;22.60;99.90
7512;DHT22;9999;48.780;9.146;2023-07-31T14:44:18;22.50;99.90
7512;DHT22;9999;48.780;9.146;2023-07-31T14:46:45;22.50;99.90
7512;DHT22;9999;48.780;9.146;2023-07-31T14:49:12;22.50;99.90
7512;DHT22;9999;48.780;9.146;2023-07-31T14:51:39;22.50;99.90
7512;DHT22;9999;48.780;9.146;2023-07-31T14:54:05;22.60;99.90
7512;DHT22;9999;48.780;9.146;2023-07-31T14:56:32;22.70;99.90
7512;DHT22;9999;48.780;9.146;2023-07-31T14:58:59;22.70;99.90
7512;DHT22;9999;48.780;9.146;2023-07-31T15:01:27;22.70;99.90
7512;DHT22;9999;48.780;9.146;2023-07-31T15:03:54;22.80;99.90
7512;DHT22;9999;48.780;9.146;2023-07-31T15:06:20;22.80;99.90
7512;DHT22;9999;48.780;9.146;2023-07-31T15:08:47;22.90;99.90
7512;DHT22;9999;48.780;9.146;2023-07-31T15:11:14;22.80;99.90
7512;DHT22;9999;48.780;9.146;2023-07-31T15:13:41;23.00;99.90
7512;DHT22;9999;48.780;9.146;2023-07-31T15:16:08;22.90;99.90
7512;DHT22;9999;48.780;9.146;2023-07-31T15:18:36;22.80;99.90
7512;DHT22;9999;48.780;9.146;2023-07-31T15:21:03;22.80;99.90
7512;DHT22;9999;48.780;9.146;2023-07-31T15:23:32;22.80;99.90
7512;DHT22;9999;48.780;9.146;2023-07-31T15:25:58;22.80;99.90
7512;DHT22;9999;48.780;9.146;2023-07-31T15:28:25;22.90;99.90
7512;DHT22;9999;48.780;9.146;2023-07-31T15:30:52;22.90;99.90
7512;DHT22;9999;48.780;9.146;2023-07-31T15:33:19;23.00;99.90
7512;DHT22;9999;48.780;9.146;2023-07-31T15:35:48;23.00;99.90
7512;DHT22;9999;48.780;9.146;2023-07-31T15:38:15;23.10;99.90
7512;DHT22;9999;48.780;9.146;2023-07-31T15:40:42;23.10;99.90
7512;DHT22;9999;48.780;9.146;2023-07-31T15:43:08;23.00;99.90
7512;DHT22;9999;48.780;9.146;2023-07-31T15:45:35;23.00;99.90
7512;DHT22;9999;48.780;9.146;2023-07-31T15:48:02;22.90;99.90
7512;DHT22;9999;48.780;9.146;2023-07-31T15:50:29;23.00;99.90
7512;DHT22;9999;48.780;9.146;2023-07-31T15:52:57;23.00;99.90
7512;DHT22;9999;48.780;9.146;2023-07-31T15:55:23;22.90;99.90
7512;DHT22;9999;48.780;9.146;2023-07-31T15:57:50;22.90;99.90
7512;DHT22;9999;48.780;9.146;2023-07-31T16:00:17;22.90;99.90
7512;DHT22;9999;48.780;9.146;2023-07-31T16:02:44;23.10;99.90
7512;DHT22;9999;48.780;9.146;2023-07-31T16:05:10;23.00;99.90